createdAt,value
2023-03-26T00:00:55.395Z,98244.95
2023-03-26T00:03:22.717Z,98246.93
2023-03-26T00:05:50.773Z,98244.27
2023-03-26T00:08:21.726Z,98246.91
2023-03-26T00:10:48.752Z,98239.58
2023-03-26T00:13:18.594Z,98240.60
2023-03-26T00:15:45.983Z,98238.41
2023-03-26T00:18:13.167Z,98241.17
2023-03-26T00:20:45.060Z,98243.10
2023-03-26T00:23:13.745Z,98246.14
2023-03-26T00:25:42.958Z,98242.95
2023-03-26T00:28:12.984Z,98243.27
2023-03-26T00:30:41.331Z,98242.80
2023-03-26T00:33:11.342Z,98249.48
2023-03-26T00:35:38.349Z,98247.03
2023-03-26T00:38:05.365Z,98241.89
2023-03-26T00:40:36.303Z,98243.11
2023-03-26T00:43:18.316Z,98242.39
2023-03-26T00:45:56.639Z,98245.55
2023-03-26T00:48:37.888Z,98244.81
2023-03-26T00:51:12.127Z,98248.98
2023-03-26T00:53:40.826Z,98246.35
2023-03-26T00:56:12.062Z,98252.90
2023-03-26T00:58:39.833Z,98253.38
2023-03-26T01:01:15.021Z,98257.91
2023-03-26T01:03:53.046Z,98259.35
2023-03-26T01:06:32.237Z,98258.41
2023-03-26T01:09:03.606Z,98252.65
2023-03-26T01:11:31.685Z,98252.08
2023-03-26T01:14:06.707Z,98250.14
2023-03-26T01:16:41.341Z,98247.70
2023-03-26T01:19:12.339Z,98240.47
2023-03-26T01:21:39.991Z,98244.05
2023-03-26T01:24:08.122Z,98247.86
2023-03-26T01:26:47.077Z,98248.83
2023-03-26T01:29:27.609Z,98257.20
2023-03-26T01:32:08.915Z,98268.34
2023-03-26T01:35:00.864Z,98279.13
2023-03-26T01:38:09.856Z,98288.45
2023-03-26T01:40:46.137Z,98287.52
2023-03-26T01:43:18.015Z,98292.95
2023-03-26T01:45:45.087Z,98294.89
2023-03-26T01:48:11.961Z,98293.61
2023-03-26T01:50:38.853Z,98289.31
2023-03-26T01:53:05.734Z,98284.81
2023-03-26T01:55:41.116Z,98292.16
2023-03-26T01:58:22.993Z,98300.45
2023-03-26T02:00:56.940Z,98307.05
2023-03-26T02:03:27.253Z,98302.98
2023-03-26T02:06:15.121Z,98303.63
2023-03-26T02:08:52.179Z,98313.08
2023-03-26T02:11:19.970Z,98316.95
2023-03-26T02:13:47.781Z,98316.67
2023-03-26T02:16:15.827Z,98323.26
2023-03-26T02:18:50.727Z,98322.69
2023-03-26T02:21:22.091Z,98330.98
2023-03-26T02:23:50.171Z,98333.64
2023-03-26T02:26:18.562Z,98338.40
2023-03-26T02:28:56.133Z,98342.60
2023-03-26T02:31:30.692Z,98350.64
2023-03-26T02:33:57.511Z,98359.83
2023-03-26T02:36:26.822Z,98365.48
2023-03-26T02:38:57.276Z,98366.88
2023-03-26T02:41:28.636Z,98371.35
2023-03-26T02:43:58.765Z,98371.19
2023-03-26T02:46:45.365Z,98375.70
2023-03-26T02:49:38.300Z,98376.36
2023-03-26T02:52:05.876Z,98375.13
2023-03-26T02:54:36.724Z,98375.19
2023-03-26T02:57:35.640Z,98380.13
2023-03-26T03:00:22.051Z,98382.09
2023-03-26T03:03:16.776Z,98389.95
2023-03-26T03:06:01.929Z,98393.04
2023-03-26T03:08:33.556Z,98396.70
2023-03-26T03:11:24.129Z,98407.59
2023-03-26T03:13:51.874Z,98413.20
2023-03-26T03:16:22.242Z,98418.05
2023-03-26T03:18:53.667Z,98427.85
2023-03-26T03:21:23.474Z,98438.96
2023-03-26T03:23:50.639Z,98440.73
2023-03-26T03:26:21.068Z,98447.27
2023-03-26T03:28:56.846Z,98449.06
2023-03-26T03:31:25.758Z,98452.35
2023-03-26T03:33:53.372Z,98453.73
2023-03-26T03:36:27.202Z,98458.95
2023-03-26T03:39:01.810Z,98459.88
2023-03-26T03:41:29.158Z,98460.53
2023-03-26T03:43:58.734Z,98459.57
2023-03-26T03:46:27.906Z,98461.65
2023-03-26T03:48:57.736Z,98466.24
2023-03-26T03:51:31.676Z,98474.10
2023-03-26T03:54:03.187Z,98479.70
2023-03-26T03:56:55.281Z,98484.48
2023-03-26T03:59:31.209Z,98488.21
2023-03-26T04:01:58.658Z,98493.92
2023-03-26T04:04:49.531Z,98493.77
2023-03-26T04:07:18.933Z,98495.25
2023-03-26T04:10:04.835Z,98495.52
2023-03-26T04:12:52.689Z,98492.23
2023-03-26T04:15:24.089Z,98490.93
2023-03-26T04:17:51.756Z,98491.08
2023-03-26T04:21:51.683Z,98499.10
2023-03-26T04:24:22.641Z,98494.19
2023-03-26T04:27:21.624Z,98509.64
2023-03-26T04:29:50.098Z,98509.62
2023-03-26T04:32:34.458Z,98513.29
2023-03-26T04:35:04.164Z,98516.69
2023-03-26T04:37:40.169Z,98522.39
2023-03-26T04:40:30.789Z,98530.48
2023-03-26T04:43:24.401Z,98529.10
2023-03-26T04:46:11.780Z,98526.84
2023-03-26T04:48:48.541Z,98532.15
2023-03-26T04:51:24.151Z,98532.34
2023-03-26T04:54:00.014Z,98539.67
2023-03-26T04:56:39.191Z,98538.41
2023-03-26T04:59:26.448Z,98531.63
2023-03-26T05:01:57.321Z,98532.60
2023-03-26T05:04:27.038Z,98531.21
2023-03-26T05:06:58.127Z,98532.36
2023-03-26T05:09:34.420Z,98534.11
2023-03-26T05:12:15.034Z,98540.73
2023-03-26T05:15:04.468Z,98542.10
2023-03-26T05:17:56.040Z,98547.27
2023-03-26T05:20:31.670Z,98551.15
2023-03-26T05:23:07.627Z,98558.29
2023-03-26T05:25:43.205Z,98570.36
2023-03-26T05:28:19.511Z,98571.85
2023-03-26T05:31:02.952Z,98565.61
2023-03-26T05:33:35.289Z,98562.84
2023-03-26T05:36:13.564Z,98562.23
2023-03-26T05:38:49.742Z,98561.64
2023-03-26T05:41:38.329Z,98561.79
2023-03-26T05:44:06.987Z,98560.81
2023-03-26T05:46:36.191Z,98563.02
2023-03-26T05:49:05.045Z,98563.17
2023-03-26T05:51:35.328Z,98557.77
2023-03-26T05:54:23.215Z,98558.95
2023-03-26T05:57:10.682Z,98552.42
2023-03-26T06:00:04.960Z,98547.50
2023-03-26T06:02:48.329Z,98551.38
2023-03-26T06:05:37.709Z,98550.54
2023-03-26T06:08:22.009Z,98553.77
2023-03-26T06:10:58.975Z,98555.91
2023-03-26T06:13:28.464Z,98549.71
2023-03-26T06:15:58.817Z,98549.18
2023-03-26T06:18:36.405Z,98548.07
2023-03-26T06:21:34.089Z,98545.39
2023-03-26T06:24:27.333Z,98548.80
2023-03-26T06:27:14.595Z,98545.21
2023-03-26T06:30:16.392Z,98546.02
2023-03-26T06:33:02.430Z,98543.48
2023-03-26T06:35:36.970Z,98545.58
2023-03-26T06:38:07.748Z,98542.92
2023-03-26T06:40:37.315Z,98543.27
2023-03-26T06:43:22.747Z,98537.61
2023-03-26T06:46:25.972Z,98535.61
2023-03-26T06:49:13.270Z,98526.97
2023-03-26T06:52:03.019Z,98532.01
2023-03-26T06:54:57.779Z,98528.36
2023-03-26T06:57:49.474Z,98532.31
2023-03-26T07:00:42.562Z,98534.59
2023-03-26T07:03:30.302Z,98544.82
2023-03-26T07:06:19.694Z,98546.83
2023-03-26T07:09:14.539Z,98543.40
2023-03-26T07:12:01.465Z,98549.86
2023-03-26T07:15:01.230Z,98549.58
2023-03-26T07:17:38.761Z,98555.17
2023-03-26T07:20:20.887Z,98555.86
2023-03-26T07:22:49.743Z,98559.25
2023-03-26T07:25:33.104Z,98559.94
2023-03-26T07:28:27.424Z,98554.85
2023-03-26T07:31:27.568Z,98557.67
2023-03-26T07:34:22.645Z,98560.95
2023-03-26T07:37:22.344Z,98557.14
2023-03-26T07:40:28.843Z,98557.22
2023-03-26T07:43:28.112Z,98560.02
2023-03-26T07:46:29.306Z,98565.37
2023-03-26T07:49:30.512Z,98564.61
2023-03-26T07:52:15.405Z,98561.01
2023-03-26T07:54:54.311Z,98564.41
2023-03-26T07:57:59.544Z,98563.66
2023-03-26T08:00:54.547Z,98559.24
2023-03-26T08:03:52.101Z,98555.51
2023-03-26T08:06:35.697Z,98557.98
2023-03-26T08:09:34.689Z,98558.52
2023-03-26T08:12:35.083Z,98556.39
2023-03-26T08:15:06.548Z,98558.41
2023-03-26T08:18:14.346Z,98564.60
2023-03-26T08:20:55.229Z,98567.56
2023-03-26T08:23:36.195Z,98572.15
2023-03-26T08:26:28.119Z,98572.73
2023-03-26T08:29:16.193Z,98574.63
2023-03-26T08:31:45.568Z,98574.65
2023-03-26T08:34:13.956Z,98570.06
2023-03-26T08:36:43.104Z,98574.45
2023-03-26T08:39:11.905Z,98577.23
2023-03-26T08:41:55.370Z,98580.73
2023-03-26T08:44:36.656Z,98577.08
2023-03-26T08:47:55.888Z,98570.21
2023-03-26T08:50:43.160Z,98567.78
2023-03-26T08:53:39.280Z,98566.30
2023-03-26T08:56:32.880Z,98559.45
2023-03-26T08:59:39.518Z,98562.75
2023-03-26T09:02:28.309Z,98568.48
2023-03-26T09:05:21.641Z,98568.84
2023-03-26T09:08:17.902Z,98567.65
2023-03-26T09:11:06.658Z,98567.21
2023-03-26T09:13:52.540Z,98566.11
2023-03-26T09:16:33.153Z,98566.88
2023-03-26T09:19:10.704Z,98569.36
2023-03-26T09:22:00.682Z,98572.79
2023-03-26T09:24:41.256Z,98572.54
2023-03-26T09:27:15.912Z,98577.65
2023-03-26T09:29:54.616Z,98577.14
2023-03-26T09:33:00.626Z,98576.19
2023-03-26T09:35:52.893Z,98584.46
2023-03-26T09:38:33.892Z,98586.65
2023-03-26T09:41:08.647Z,98585.02
2023-03-26T09:43:43.777Z,98591.69
2023-03-26T09:46:34.772Z,98592.13
2023-03-26T09:49:09.602Z,98592.48
2023-03-26T09:52:08.611Z,98596.50
2023-03-26T09:54:44.824Z,98596.61
2023-03-26T09:57:58.475Z,98607.42
2023-03-26T10:00:49.947Z,98604.48
2023-03-26T10:03:26.390Z,98603.62
2023-03-26T10:06:12.192Z,98602.41
2023-03-26T10:08:49.926Z,98601.44
2023-03-26T10:19:00.506Z,98588.84
2023-03-26T10:22:13.116Z,98593.19
2023-03-26T10:25:01.528Z,98602.23
2023-03-26T10:28:09.166Z,98603.16
2023-03-26T10:31:16.589Z,98605.33
2023-03-26T10:34:03.401Z,98608.25
2023-03-26T10:36:41.476Z,98600.50
2023-03-26T10:39:54.706Z,98599.46
2023-03-26T10:42:22.852Z,98592.11
2023-03-26T10:45:02.628Z,98587.63
2023-03-26T10:47:54.435Z,98584.44
2023-03-26T10:50:28.198Z,98587.08
2023-03-26T10:53:12.942Z,98587.52
2023-03-26T10:55:45.778Z,98582.97
2023-03-26T10:58:29.677Z,98580.78
2023-03-26T11:01:48.593Z,98582.92
2023-03-26T11:04:35.954Z,98578.78
2023-03-26T11:07:10.944Z,98574.81
2023-03-26T11:09:48.245Z,98575.21
2023-03-26T11:12:27.177Z,98572.66
2023-03-26T11:15:16.092Z,98564.84
2023-03-26T11:18:27.622Z,98561.96
2023-03-26T11:21:30.861Z,98554.83
2023-03-26T11:24:18.825Z,98546.75
2023-03-26T11:26:55.991Z,98548.04
2023-03-26T11:29:39.987Z,98546.91
2023-03-26T11:32:23.297Z,98546.92
2023-03-26T11:35:40.701Z,98546.56
2023-03-26T11:38:24.030Z,98550.10
2023-03-26T11:40:57.220Z,98551.88
2023-03-26T11:43:49.723Z,98549.95
2023-03-26T11:46:21.108Z,98547.85
2023-03-26T11:48:59.432Z,98545.54
2023-03-26T11:51:31.678Z,98543.27
2023-03-26T11:54:01.532Z,98544.16
2023-03-26T11:57:05.497Z,98544.20
2023-03-26T11:59:55.494Z,98543.16
2023-03-26T12:02:38.419Z,98555.42
2023-03-26T12:05:21.342Z,98558.84
2023-03-26T12:08:00.535Z,98563.23
2023-03-26T12:10:38.144Z,98554.55
2023-03-26T12:13:21.832Z,98550.48
2023-03-26T12:15:51.135Z,98550.72
2023-03-26T12:18:26.369Z,98546.98
2023-03-26T12:21:18.211Z,98546.58
2023-03-26T12:24:01.975Z,98537.04
2023-03-26T12:26:40.792Z,98531.78
2023-03-26T12:29:19.410Z,98534.33
2023-03-26T12:32:09.398Z,98527.55
2023-03-26T12:34:39.716Z,98526.08
2023-03-26T12:37:16.406Z,98522.10
2023-03-26T12:40:08.660Z,98523.07
2023-03-26T12:44:51.110Z,98517.90
2023-03-26T12:45:37.404Z,98517.13
2023-03-26T12:48:07.262Z,98513.13
2023-03-26T12:50:51.590Z,98508.33
2023-03-26T12:53:29.236Z,98505.23
2023-03-26T12:56:21.941Z,98506.89
2023-03-26T12:59:05.578Z,98502.05
2023-03-26T13:01:59.420Z,98503.23
2023-03-26T13:05:05.741Z,98502.23
2023-03-26T13:08:00.729Z,98495.64
2023-03-26T13:10:43.655Z,98494.76
2023-03-26T13:13:52.815Z,98491.12
2023-03-26T13:16:45.399Z,98495.08
2023-03-26T13:19:29.244Z,98498.70
2023-03-26T13:22:30.244Z,98497.63
2023-03-26T13:25:23.161Z,98497.82
2023-03-26T13:28:21.178Z,98500.11
2023-03-26T13:31:12.009Z,98500.50
2023-03-26T13:34:05.470Z,98503.20
2023-03-26T13:36:51.261Z,98501.41
2023-03-26T13:39:25.341Z,98503.05
2023-03-26T13:42:26.854Z,98502.90
2023-03-26T13:45:07.779Z,98505.39
2023-03-26T13:47:38.625Z,98505.13
2023-03-26T13:50:10.063Z,98501.36
2023-03-26T13:52:53.174Z,98501.68
2023-03-26T13:55:34.311Z,98504.73
2023-03-26T13:58:13.823Z,98504.59
2023-03-26T14:00:59.226Z,98507.23
2023-03-26T14:03:35.872Z,98504.44
2023-03-26T14:06:24.554Z,98501.20
2023-03-26T14:09:05.014Z,98511.68
2023-03-26T14:12:02.046Z,98520.51
2023-03-26T14:14:48.925Z,98531.22
2023-03-26T14:17:38.727Z,98534.66
2023-03-26T14:20:28.935Z,98531.61
2023-03-26T14:23:12.564Z,98529.46
2023-03-26T14:25:47.394Z,98529.18
2023-03-26T14:28:21.865Z,98525.77
2023-03-26T14:31:04.255Z,98525.05
2023-03-26T14:33:38.803Z,98521.30
2023-03-26T14:36:14.811Z,98517.57
2023-03-26T14:39:06.581Z,98515.77
2023-03-26T14:41:59.398Z,98515.36
2023-03-26T14:44:49.108Z,98518.35
2023-03-26T14:47:19.200Z,98518.13
2023-03-26T14:50:03.653Z,98518.29
2023-03-26T14:52:51.968Z,98518.86
2023-03-26T14:55:35.587Z,98514.67
2023-03-26T14:58:30.603Z,98512.24
2023-03-26T15:01:19.022Z,98513.51
2023-03-26T15:04:06.545Z,98513.59
2023-03-26T15:06:47.352Z,98514.02
2023-03-26T15:09:46.494Z,98514.36
2023-03-26T15:12:50.149Z,98509.55
2023-03-26T15:15:37.334Z,98515.38
2023-03-26T15:18:41.548Z,98515.63
2023-03-26T15:21:45.559Z,98517.23
2023-03-26T15:24:51.417Z,98516.93
2023-03-26T15:27:43.457Z,98512.88
2023-03-26T15:30:33.357Z,98515.26
2023-03-26T15:33:09.101Z,98515.72
2023-03-26T15:35:38.108Z,98518.34
2023-03-26T15:38:28.457Z,98520.87
2023-03-26T15:41:11.912Z,98522.40
2023-03-26T15:44:24.231Z,98524.56
2023-03-26T15:47:44.851Z,98526.99
2023-03-26T15:50:29.800Z,98531.61
2023-03-26T15:53:13.028Z,98528.53
2023-03-26T15:56:07.630Z,98530.30
2023-03-26T15:58:59.778Z,98532.42
2023-03-26T16:02:03.993Z,98533.09
2023-03-26T16:04:50.043Z,98538.05
2023-03-26T16:07:54.305Z,98538.33
2023-03-26T16:10:46.761Z,98548.61
2023-03-26T16:13:50.827Z,98548.36
2023-03-26T16:16:24.176Z,98549.42
2023-03-26T16:19:19.297Z,98551.96
2023-03-26T16:22:01.167Z,98559.02
2023-03-26T16:24:32.829Z,98561.37
2023-03-26T16:27:15.654Z,98563.17
2023-03-26T16:30:11.316Z,98569.46
2023-03-26T16:33:01.930Z,98572.41
2023-03-26T16:35:39.880Z,98579.39
2023-03-26T16:39:45.628Z,98592.36
2023-03-26T16:42:49.762Z,98597.13
2023-03-26T16:45:37.372Z,98594.17
2023-03-26T16:48:05.695Z,98598.23
2023-03-26T16:50:44.725Z,98597.30
2023-03-26T16:53:24.550Z,98603.25
2023-03-26T16:56:22.596Z,98600.45
2023-03-26T16:59:01.918Z,98597.79
2023-03-26T17:01:47.045Z,98597.59
2023-03-26T17:04:20.669Z,98599.11
2023-03-26T17:07:08.871Z,98596.39
2023-03-26T17:09:44.926Z,98599.02
2023-03-26T17:12:35.230Z,98596.74
2023-03-26T17:15:20.424Z,98602.08
2023-03-26T17:18:16.230Z,98606.34
2023-03-26T17:21:29.820Z,98604.88
2023-03-26T17:24:43.608Z,98604.52
2023-03-26T17:27:34.239Z,98605.61
2023-03-26T17:30:28.902Z,98604.90
2023-03-26T17:33:06.081Z,98605.88
2023-03-26T17:35:36.248Z,98603.69
2023-03-26T17:38:16.947Z,98605.55
2023-03-26T17:40:45.434Z,98609.66
2023-03-26T17:43:34.384Z,98614.71
2023-03-26T17:46:04.715Z,98608.64
2023-03-26T17:48:35.657Z,98608.44
2023-03-26T17:51:30.377Z,98608.55
2023-03-26T17:53:59.493Z,98613.65
2023-03-26T17:56:29.345Z,98615.91
2023-03-26T17:59:11.495Z,98617.92
2023-03-26T18:01:42.379Z,98618.83
2023-03-26T18:04:19.949Z,98620.65
2023-03-26T18:06:55.605Z,98624.71
2023-03-26T18:09:37.287Z,98626.46
2023-03-26T18:12:24.819Z,98631.67
2023-03-26T18:15:32.116Z,98627.91
2023-03-26T18:18:18.326Z,98635.22
2023-03-26T18:20:50.180Z,98638.58
2023-03-26T18:23:27.173Z,98636.56
2023-03-26T18:25:58.576Z,98638.95
2023-03-26T18:28:35.894Z,98642.86
2023-03-26T18:31:19.062Z,98645.55
2023-03-26T18:33:49.555Z,98651.34
2023-03-26T18:36:18.984Z,98645.71
2023-03-26T18:38:49.307Z,98643.21
2023-03-26T18:41:27.549Z,98642.26
2023-03-26T18:43:55.767Z,98640.19
2023-03-26T18:46:25.018Z,98636.86
2023-03-26T18:48:55.914Z,98633.08
2023-03-26T18:51:25.378Z,98635.66
2023-03-26T18:54:03.488Z,98631.45
2023-03-26T18:56:35.458Z,98631.71
2023-03-26T18:59:28.370Z,98632.58
2023-03-26T19:01:57.951Z,98637.18
2023-03-26T19:04:26.773Z,98631.05
2023-03-26T19:06:55.468Z,98635.35
2023-03-26T19:09:31.724Z,98630.42
2023-03-26T19:12:06.231Z,98632.45
2023-03-26T19:14:56.141Z,98629.15
2023-03-26T19:17:27.162Z,98630.14
2023-03-26T19:19:55.855Z,98627.02
2023-03-26T19:22:25.972Z,98633.59
2023-03-26T19:24:57.945Z,98631.55
2023-03-26T19:27:26.609Z,98629.52
2023-03-26T19:29:58.062Z,98627.40
2023-03-26T19:32:34.663Z,98629.77
2023-03-26T19:35:04.707Z,98625.77
2023-03-26T19:37:33.870Z,98625.81
2023-03-26T19:40:07.361Z,98626.77
2023-03-26T19:42:43.784Z,98623.05
2023-03-26T19:45:19.149Z,98624.59
2023-03-26T19:48:00.100Z,98625.23
2023-03-26T19:50:37.451Z,98621.95
2023-03-26T19:53:19.159Z,98623.94
2023-03-26T19:55:58.029Z,98621.83
2023-03-26T19:58:26.714Z,98620.01
2023-03-26T20:00:56.708Z,98616.95
2023-03-26T20:03:40.615Z,98614.84
2023-03-26T20:06:13.068Z,98618.33
2023-03-26T20:08:47.462Z,98618.47
2023-03-26T20:11:19.912Z,98621.02
2023-03-26T20:13:54.097Z,98625.32
2023-03-26T20:16:31.819Z,98628.83
2023-03-26T20:19:04.742Z,98630.90
2023-03-26T20:21:41.535Z,98624.80
2023-03-26T20:24:17.017Z,98626.92
2023-03-26T20:26:45.932Z,98626.66
2023-03-26T20:29:14.948Z,98626.00
2023-03-26T20:31:43.342Z,98632.88
2023-03-26T20:34:19.875Z,98628.58
2023-03-26T20:36:55.624Z,98632.59
2023-03-26T20:39:25.470Z,98634.77
2023-03-26T20:41:55.357Z,98639.16
2023-03-26T20:44:23.727Z,98636.06
2023-03-26T20:46:52.643Z,98634.38
2023-03-26T20:49:22.354Z,98638.02
2023-03-26T20:51:51.257Z,98642.92
2023-03-26T20:54:21.912Z,98638.94
2023-03-26T20:56:51.398Z,98638.97
2023-03-26T20:59:29.142Z,98636.09
2023-03-26T21:01:58.090Z,98635.72
2023-03-26T21:04:26.718Z,98640.29
2023-03-26T21:06:57.878Z,98638.20
2023-03-26T21:09:35.734Z,98638.98
2023-03-26T21:12:16.914Z,98644.10
2023-03-26T21:14:55.809Z,98643.08
2023-03-26T21:17:25.260Z,98644.91
2023-03-26T21:19:54.080Z,98647.08
2023-03-26T21:22:53.788Z,98644.26
2023-03-26T21:25:32.316Z,98645.77
2023-03-26T21:28:09.113Z,98649.05
2023-03-26T21:30:40.101Z,98651.15
2023-03-26T21:33:09.032Z,98651.81
2023-03-26T21:35:40.843Z,98650.00
2023-03-26T21:38:10.072Z,98649.44
2023-03-26T21:40:42.285Z,98645.48
2023-03-26T21:43:13.490Z,98642.23
2023-03-26T21:45:43.196Z,98640.46
2023-03-26T21:48:12.122Z,98642.88
2023-03-26T21:50:41.014Z,98636.47
2023-03-26T21:53:12.920Z,98641.28
2023-03-26T21:55:58.968Z,98632.92
2023-03-26T21:58:58.759Z,98631.38
2023-03-26T22:01:31.802Z,98633.08
2023-03-26T22:04:07.819Z,98636.26
2023-03-26T22:07:01.338Z,98638.67
2023-03-26T22:09:36.511Z,98641.46
2023-03-26T22:12:05.930Z,98638.21
2023-03-26T22:14:36.224Z,98640.60
2023-03-26T22:17:05.057Z,98635.03
2023-03-26T22:19:41.637Z,98633.33
2023-03-26T22:22:10.922Z,98634.04
2023-03-26T22:24:39.530Z,98632.48
2023-03-26T22:27:08.588Z,98636.37
2023-03-26T22:29:39.435Z,98639.46
2023-03-26T22:32:08.235Z,98643.96
2023-03-26T22:34:38.046Z,98640.40
2023-03-26T22:37:06.550Z,98639.08
2023-03-26T22:39:35.116Z,98643.31
2023-03-26T22:42:05.235Z,98640.16
2023-03-26T22:44:33.509Z,98639.61
2023-03-26T22:47:01.804Z,98634.05
2023-03-26T22:49:31.709Z,98635.81
2023-03-26T22:52:07.346Z,98633.67
2023-03-26T22:54:37.304Z,98628.77
2023-03-26T22:57:05.624Z,98627.49
2023-03-26T22:59:35.082Z,98624.31
2023-03-26T23:02:03.346Z,98625.02
2023-03-26T23:04:32.500Z,98628.83
2023-03-26T23:07:01.064Z,98628.63
2023-03-26T23:09:29.811Z,98628.87
2023-03-26T23:12:00.759Z,98626.68
2023-03-26T23:14:29.030Z,98623.22
2023-03-26T23:16:57.474Z,98622.60
2023-03-26T23:19:34.334Z,98618.27
2023-03-26T23:22:02.974Z,98612.92
2023-03-26T23:24:31.782Z,98614.66
2023-03-26T23:27:01.170Z,98613.54
2023-03-26T23:29:30.365Z,98621.83
2023-03-26T23:32:00.588Z,98620.65
2023-03-26T23:34:29.180Z,98620.36
2023-03-26T23:36:58.250Z,98625.64
2023-03-26T23:39:28.926Z,98618.30
2023-03-26T23:41:57.291Z,98616.98
2023-03-26T23:44:29.699Z,98615.45
2023-03-26T23:47:00.707Z,98613.42
2023-03-26T23:49:29.004Z,98612.86
2023-03-26T23:51:57.377Z,98616.01
2023-03-26T23:54:25.746Z,98616.29
2023-03-26T23:56:57.914Z,98615.34
2023-03-26T23:59:26.590Z,98622.59
